Climatologie pour Saint-Brevin les Pins
Jour • Résumé pour mars 22, 2017 Système :  Métrique    Anglais   Mixte
« - 1 jour
+ 1 jour »
Jour Semaine Mois Année Personnalisé
  Maximum : Minimum : Moyenne :
Température sous abri : 10.6 °C 2.9 °C 7.8 °C
Point de rosée : 7.3 °C 2.3 °C 5.5 °C
Humidité : 97 % 73 % 86 %
Vitesse du vent : 30.6 km/h 0.0 km/h 7.8 km/h
Rafale : 45.1 km/h - -
Direction :- - SSW
Pression : 1011.7 hPa 1004.6 hPa -
Précipitations : 6.1 mm    
Historical Graphs
 
 
Tableau de données pour mars 22, 2017
Heure Tempé Pt rosée Pression Vent Vitesse Rafale Humidité Taux pluie (/hr) Soleil
00:00 7.8 °C 4.6 °C 1011.7 hPa South 11.3 km/h 20.9 km/h 80 % 0.0 mm 0 W/m2
00:10 7.8 °C 4.4 °C 1011.4 hPa SSE 9.7 km/h 17.7 km/h 79 % 0.0 mm 0 W/m2
00:20 7.7 °C 4.7 °C 1011.4 hPa South 11.3 km/h 17.7 km/h 81 % 0.0 mm 0 W/m2
00:25 7.8 °C 4.7 °C 1011.1 hPa South 12.9 km/h 16.1 km/h 81 % 0.0 mm 0 W/m2
00:30 7.9 °C 5.1 °C 1011.1 hPa SSW 8.0 km/h 19.3 km/h 82 % 0.0 mm 0 W/m2
00:35 8.1 °C 5.2 °C 1011.1 hPa South 6.4 km/h 19.3 km/h 82 % 0.0 mm 0 W/m2
00:40 8.1 °C 5.0 °C 1010.7 hPa SSW 9.7 km/h 17.7 km/h 81 % 0.0 mm 0 W/m2
00:45 8.2 °C 5.2 °C 1010.7 hPa South 8.0 km/h 17.7 km/h 81 % 0.0 mm 0 W/m2
00:50 8.2 °C 5.3 °C 1010.7 hPa SSE 3.2 km/h 16.1 km/h 82 % 0.0 mm 0 W/m2
00:55 8.2 °C 5.3 °C 1010.4 hPa South 9.7 km/h 16.1 km/h 82 % 0.0 mm 0 W/m2
01:00 8.3 °C 5.4 °C 1010.4 hPa SSW 12.9 km/h 25.7 km/h 82 % 0.0 mm 0 W/m2
01:05 8.5 °C 5.6 °C 1010.4 hPa SSW 12.9 km/h 25.7 km/h 82 % 0.0 mm 0 W/m2
01:10 8.7 °C 5.6 °C 1010.4 hPa SSW 6.4 km/h 25.7 km/h 81 % 0.0 mm 0 W/m2
01:15 8.9 °C 5.3 °C 1010.0 hPa SSW 8.0 km/h 22.5 km/h 78 % 0.0 mm 0 W/m2
01:20 8.9 °C 5.1 °C 1010.0 hPa SSW 8.0 km/h 22.5 km/h 77 % 0.0 mm 0 W/m2
01:30 9.0 °C 5.0 °C 1009.7 hPa South 19.3 km/h 29.0 km/h 76 % 0.0 mm 0 W/m2
01:40 8.9 °C 5.5 °C 1009.7 hPa South 11.3 km/h 27.4 km/h 79 % 0.0 mm 0 W/m2
01:45 8.9 °C 5.6 °C 1009.4 hPa SSW 11.3 km/h 30.6 km/h 80 % 0.0 mm 0 W/m2
01:50 8.9 °C 5.8 °C 1009.4 hPa South 19.3 km/h 30.6 km/h 81 % 0.0 mm 0 W/m2
01:55 8.9 °C 5.9 °C 1009.4 hPa South 9.7 km/h 32.2 km/h 81 % 0.0 mm 0 W/m2
02:00 9.0 °C 5.9 °C 1009.0 hPa SSW 11.3 km/h 32.2 km/h 81 % 0.0 mm 0 W/m2
02:05 9.1 °C 6.0 °C 1009.0 hPa South 19.3 km/h 30.6 km/h 81 % 0.0 mm 0 W/m2
02:10 9.1 °C 5.8 °C 1008.7 hPa SSW 25.7 km/h 29.0 km/h 80 % 0.0 mm 0 W/m2
02:15 9.2 °C 5.9 °C 1008.7 hPa SSE 12.9 km/h 29.0 km/h 80 % 0.0 mm 0 W/m2
02:25 9.2 °C 5.9 °C 1008.4 hPa South 12.9 km/h 30.6 km/h 80 % 0.0 mm 0 W/m2
02:30 9.2 °C 5.9 °C 1008.4 hPa SSW 14.5 km/h 29.0 km/h 80 % 0.0 mm 0 W/m2
02:35 9.2 °C 5.9 °C 1008.4 hPa South 17.7 km/h 29.0 km/h 80 % 0.0 mm 0 W/m2
02:40 9.3 °C 6.2 °C 1008.4 hPa South 20.9 km/h 29.0 km/h 81 % 0.0 mm 0 W/m2
02:45 9.3 °C 6.1 °C 1008.0 hPa SSW 29.0 km/h 30.6 km/h 80 % 0.0 mm 0 W/m2
02:50 9.4 °C 5.8 °C 1008.0 hPa SSW 30.6 km/h 30.6 km/h 78 % 0.0 mm 0 W/m2
02:55 9.5 °C 5.9 °C 1008.0 hPa South 16.1 km/h 30.6 km/h 78 % 0.0 mm 0 W/m2
03:00 9.4 °C 5.6 °C 1007.7 hPa SSW 14.5 km/h 32.2 km/h 77 % 0.0 mm 0 W/m2
03:05 9.4 °C 5.6 °C 1007.7 hPa South 27.4 km/h 37.0 km/h 77 % 0.0 mm 0 W/m2
03:10 9.5 °C 5.7 °C 1007.7 hPa South 29.0 km/h 41.8 km/h 77 % 0.0 mm 0 W/m2
03:15 9.5 °C 5.7 °C 1007.7 hPa South 17.7 km/h 41.8 km/h 77 % 0.0 mm 0 W/m2
03:20 9.4 °C 6.0 °C 1007.3 hPa South 29.0 km/h 33.8 km/h 79 % 0.0 mm 0 W/m2
03:25 9.4 °C 5.9 °C 1007.3 hPa SSW 12.9 km/h 38.6 km/h 79 % 0.0 mm 0 W/m2
03:30 9.4 °C 6.2 °C 1007.3 hPa South 16.1 km/h 38.6 km/h 80 % 0.0 mm 0 W/m2
03:35 9.6 °C 6.3 °C 1007.0 hPa SW 8.0 km/h 32.2 km/h 80 % 0.0 mm 0 W/m2
03:40 9.7 °C 6.4 °C 1007.0 hPa SSW 11.3 km/h 32.2 km/h 80 % 0.0 mm 0 W/m2
03:45 9.8 °C 6.3 °C 1007.0 hPa SSW 11.3 km/h 29.0 km/h 79 % 0.0 mm 0 W/m2
03:50 9.8 °C 6.3 °C 1006.7 hPa SW 19.3 km/h 30.6 km/h 79 % 0.0 mm 0 W/m2
03:55 9.7 °C 6.3 °C 1006.7 hPa SSW 17.7 km/h 40.2 km/h 79 % 0.0 mm 0 W/m2
04:00 9.7 °C 6.2 °C 1006.7 hPa South 27.4 km/h 40.2 km/h 79 % 0.0 mm 0 W/m2
04:05 9.6 °C 6.1 °C 1006.3 hPa SW 12.9 km/h 33.8 km/h 79 % 0.0 mm 0 W/m2
04:10 9.6 °C 6.3 °C 1006.3 hPa South 11.3 km/h 32.2 km/h 80 % 0.0 mm 0 W/m2
04:15 9.7 °C 6.4 °C 1006.3 hPa South 25.7 km/h 33.8 km/h 80 % 0.0 mm 0 W/m2
04:20 9.8 °C 6.8 °C 1006.7 hPa NW 22.5 km/h 35.4 km/h 82 % 0.0 mm 0 W/m2
04:25 8.9 °C 6.2 °C 1006.7 hPa SSW 22.5 km/h 45.1 km/h 83 % 0.5 mm 0 W/m2
04:30 8.3 °C 6.3 °C 1006.3 hPa SW 29.0 km/h 45.1 km/h 87 % 0.5 mm 0 W/m2
04:35 8.2 °C 6.5 °C 1006.0 hPa SW 20.9 km/h 33.8 km/h 89 % 0.8 mm 0 W/m2
04:40 8.3 °C 6.6 °C 1006.0 hPa SSW 9.7 km/h 32.2 km/h 89 % 0.8 mm 0 W/m2
04:45 8.4 °C 6.7 °C 1006.0 hPa WSW 17.7 km/h 33.8 km/h 89 % 0.8 mm 0 W/m2
04:50 8.6 °C 7.0 °C 1006.0 hPa South 11.3 km/h 33.8 km/h 90 % 1.0 mm 0 W/m2
04:55 8.5 °C 7.0 °C 1006.0 hPa SW 6.4 km/h 29.0 km/h 90 % 1.5 mm 0 W/m2
05:00 8.4 °C 7.1 °C 1005.6 hPa SSW 6.4 km/h 32.2 km/h 91 % 2.0 mm 0 W/m2
05:05 8.3 °C 6.9 °C 1005.6 hPa South 9.7 km/h 32.2 km/h 91 % 2.0 mm 0 W/m2
05:10 8.3 °C 7.1 °C 1005.6 hPa SSW 16.1 km/h 32.2 km/h 92 % 2.0 mm 0 W/m2
05:15 8.3 °C 7.1 °C 1005.6 hPa SSW 11.3 km/h 35.4 km/h 92 % 2.0 mm 0 W/m2
05:20 8.2 °C 6.8 °C 1005.6 hPa South 24.1 km/h 35.4 km/h 91 % 2.3 mm 0 W/m2
05:25 8.2 °C 6.9 °C 1005.6 hPa SSE 6.4 km/h 35.4 km/h 92 % 1.8 mm 0 W/m2
05:30 8.2 °C 7.0 °C 1005.3 hPa SW 8.0 km/h 35.4 km/h 92 % 1.8 mm 0 W/m2
05:40 7.8 °C 6.4 °C 1005.6 hPa West 12.9 km/h 33.8 km/h 91 % 2.0 mm 0 W/m2
05:45 7.8 °C 6.6 °C 1005.3 hPa West 9.7 km/h 27.4 km/h 92 % 2.3 mm 0 W/m2
05:50 7.8 °C 6.4 °C 1005.3 hPa SW 9.7 km/h 27.4 km/h 91 % 2.0 mm 0 W/m2
05:55 7.7 °C 6.3 °C 1005.3 hPa South 8.0 km/h 25.7 km/h 91 % 1.5 mm 0 W/m2
06:00 7.6 °C 6.2 °C 1005.3 hPa SW 6.4 km/h 20.9 km/h 91 % 1.3 mm 0 W/m2
06:05 7.6 °C 6.2 °C 1005.3 hPa SSW 12.9 km/h 19.3 km/h 91 % 1.3 mm 0 W/m2
06:10 7.6 °C 6.2 °C 1005.3 hPa West 8.0 km/h 20.9 km/h 91 % 1.3 mm 0 W/m2
06:20 7.6 °C 6.2 °C 1005.3 hPa WSW 16.1 km/h 22.5 km/h 91 % 1.0 mm 0 W/m2
06:25 7.7 °C 6.3 °C 1005.3 hPa WSW 11.3 km/h 25.7 km/h 91 % 1.0 mm 0 W/m2
06:30 7.8 °C 6.4 °C 1005.3 hPa WSW 12.9 km/h 25.7 km/h 91 % 0.8 mm 0 W/m2
06:35 7.8 °C 6.4 °C 1005.3 hPa SW 6.4 km/h 25.7 km/h 91 % 0.5 mm 0 W/m2
06:40 7.9 °C 6.5 °C 1005.0 hPa SW 4.8 km/h 27.4 km/h 91 % 0.3 mm 0 W/m2
06:45 8.1 °C 6.7 °C 1005.0 hPa SW 8.0 km/h 27.4 km/h 91 % 0.3 mm 0 W/m2
06:50 8.2 °C 6.8 °C 1005.0 hPa SSW 6.4 km/h 27.4 km/h 91 % 0.3 mm 0 W/m2
06:55 8.2 °C 6.8 °C 1005.0 hPa SW 16.1 km/h 27.4 km/h 91 % 0.3 mm 0 W/m2
07:00 8.2 °C 6.8 °C 1005.0 hPa SSW 4.8 km/h 19.3 km/h 91 % 0.0 mm 0 W/m2
07:05 8.2 °C 6.8 °C 1005.0 hPa West 11.3 km/h 20.9 km/h 91 % 0.0 mm 0 W/m2
07:10 8.2 °C 6.8 °C 1005.0 hPa WSW 8.0 km/h 20.9 km/h 91 % 0.0 mm 0 W/m2
07:15 8.2 °C 6.8 °C 1005.0 hPa SW 9.7 km/h 19.3 km/h 91 % 0.0 mm 0 W/m2
07:20 8.3 °C 6.9 °C 1005.0 hPa SW 17.7 km/h 20.9 km/h 91 % 0.0 mm 0 W/m2
07:25 8.4 °C 7.1 °C 1005.0 hPa SSW 4.8 km/h 20.9 km/h 91 % 0.0 mm 11 W/m2
07:30 8.4 °C 7.1 °C 1005.0 hPa SW 12.9 km/h 20.9 km/h 91 % 0.0 mm 12 W/m2
07:35 8.6 °C 7.2 °C 1004.6 hPa SSW 8.0 km/h 20.9 km/h 91 % 0.0 mm 16 W/m2
07:40 8.7 °C 7.3 °C 1005.0 hPa WSW 3.2 km/h 20.9 km/h 91 % 0.0 mm 12 W/m2
07:50 8.5 °C 7.1 °C 1005.0 hPa WSW 6.4 km/h 25.7 km/h 91 % 0.3 mm 18 W/m2
07:55 8.3 °C 6.9 °C 1005.0 hPa SW 8.0 km/h 20.9 km/h 91 % 0.3 mm 25 W/m2
08:00 8.2 °C 6.6 °C 1005.0 hPa WSW 8.0 km/h 20.9 km/h 90 % 0.3 mm 23 W/m2
08:05 8.2 °C 6.5 °C 1005.0 hPa WSW 4.8 km/h 16.1 km/h 89 % 0.3 mm 39 W/m2
08:10 8.2 °C 6.5 °C 1005.0 hPa West 12.9 km/h 17.7 km/h 89 % 0.3 mm 37 W/m2
08:15 8.3 °C 6.6 °C 1005.0 hPa West 16.1 km/h 19.3 km/h 89 % 0.3 mm 40 W/m2
08:20 8.3 °C 6.6 °C 1005.3 hPa WNW 12.9 km/h 20.9 km/h 89 % 0.3 mm 39 W/m2
08:25 8.4 °C 6.7 °C 1005.3 hPa WSW 12.9 km/h 25.7 km/h 89 % 0.3 mm 46 W/m2
08:30 8.5 °C 6.8 °C 1005.3 hPa WNW 17.7 km/h 25.7 km/h 89 % 0.3 mm 67 W/m2
08:35 8.6 °C 6.7 °C 1005.3 hPa West 3.2 km/h 24.1 km/h 88 % 0.3 mm 74 W/m2
08:40 8.5 °C 6.6 °C 1005.3 hPa WNW 8.0 km/h 19.3 km/h 88 % 0.3 mm 93 W/m2
08:45 8.5 °C 6.5 °C 1005.6 hPa NW 12.9 km/h 22.5 km/h 87 % 0.0 mm 102 W/m2
08:50 8.6 °C 6.5 °C 1005.6 hPa West 4.8 km/h 22.5 km/h 87 % 0.0 mm 113 W/m2
09:00 8.8 °C 6.6 °C 1005.6 hPa WNW 8.0 km/h 25.7 km/h 86 % 0.0 mm 121 W/m2
09:05 8.7 °C 6.5 °C 1006.0 hPa NW 14.5 km/h 27.4 km/h 86 % 0.0 mm 65 W/m2
09:10 8.0 °C 5.6 °C 1006.0 hPa NW 8.0 km/h 27.4 km/h 85 % 0.0 mm 49 W/m2
09:15 7.6 °C 5.6 °C 1006.0 hPa WNW 4.8 km/h 22.5 km/h 87 % 0.0 mm 93 W/m2
09:20 7.3 °C 5.5 °C 1006.0 hPa West 4.8 km/h 20.9 km/h 88 % 0.0 mm 105 W/m2
09:25 7.2 °C 5.5 °C 1006.0 hPa NW 4.8 km/h 16.1 km/h 89 % 0.0 mm 111 W/m2
09:30 7.3 °C 5.8 °C 1006.0 hPa West 6.4 km/h 12.9 km/h 90 % 0.0 mm 123 W/m2
09:40 7.4 °C 5.7 °C 1006.0 hPa WNW 3.2 km/h 14.5 km/h 89 % 0.0 mm 158 W/m2
09:45 7.6 °C 5.9 °C 1006.0 hPa West 3.2 km/h 12.9 km/h 89 % 0.0 mm 179 W/m2
09:50 7.8 °C 6.1 °C 1006.3 hPa Calm   9.7 km/h 89 % 0.0 mm 186 W/m2
09:55 8.0 °C 6.0 °C 1006.3 hPa SW 3.2 km/h 4.8 km/h 87 % 0.0 mm 172 W/m2
10:00 8.0 °C 5.8 °C 1006.3 hPa WSW 4.8 km/h 9.7 km/h 86 % 0.0 mm 167 W/m2
10:10 8.2 °C 6.0 °C 1006.3 hPa WNW 3.2 km/h 9.7 km/h 86 % 0.0 mm 167 W/m2
10:15 8.3 °C 6.1 °C 1006.3 hPa West 1.6 km/h 9.7 km/h 86 % 0.0 mm 190 W/m2
10:20 8.4 °C 6.1 °C 1006.3 hPa West 4.8 km/h 12.9 km/h 85 % 0.0 mm 246 W/m2
10:25 8.6 °C 6.2 °C 1006.3 hPa WNW 3.2 km/h 12.9 km/h 85 % 0.0 mm 237 W/m2
10:30 8.7 °C 5.9 °C 1006.3 hPa WSW 3.2 km/h 12.9 km/h 83 % 0.0 mm 272 W/m2
10:35 8.9 °C 6.3 °C 1006.3 hPa WSW 3.2 km/h 12.9 km/h 84 % 0.0 mm 366 W/m2
10:40 9.1 °C 6.1 °C 1006.3 hPa WNW 9.7 km/h 11.3 km/h 82 % 0.0 mm 243 W/m2
10:45 9.0 °C 6.3 °C 1006.3 hPa WSW 4.8 km/h 12.9 km/h 83 % 0.0 mm 236 W/m2
10:50 9.1 °C 6.3 °C 1006.3 hPa WSW 4.8 km/h 12.9 km/h 83 % 0.0 mm 207 W/m2
10:55 9.1 °C 6.4 °C 1006.3 hPa WSW 3.2 km/h 9.7 km/h 83 % 0.0 mm 308 W/m2
11:00 9.3 °C 6.5 °C 1006.3 hPa SW 3.2 km/h 9.7 km/h 83 % 0.0 mm 315 W/m2
11:05 9.3 °C 6.2 °C 1006.7 hPa WSW 8.0 km/h 11.3 km/h 81 % 0.0 mm 316 W/m2
11:10 9.3 °C 6.2 °C 1006.7 hPa WSW 4.8 km/h 12.9 km/h 81 % 0.0 mm 301 W/m2
11:15 9.3 °C 6.1 °C 1006.7 hPa SSW 4.8 km/h 12.9 km/h 80 % 0.0 mm 264 W/m2
11:20 9.5 °C 6.6 °C 1006.7 hPa West 8.0 km/h 11.3 km/h 82 % 0.0 mm 269 W/m2
11:25 9.5 °C 6.4 °C 1006.7 hPa SW 3.2 km/h 8.0 km/h 81 % 0.0 mm 265 W/m2
11:30 9.4 °C 6.2 °C 1006.3 hPa WSW 6.4 km/h 9.7 km/h 80 % 0.0 mm 244 W/m2
11:35 9.4 °C 6.2 °C 1006.3 hPa WSW 4.8 km/h 9.7 km/h 80 % 0.0 mm 251 W/m2
11:40 9.5 °C 6.2 °C 1006.3 hPa SW 3.2 km/h 11.3 km/h 80 % 0.0 mm 285 W/m2
11:45 9.7 °C 6.4 °C 1006.3 hPa West 6.4 km/h 11.3 km/h 80 % 0.0 mm 265 W/m2
11:50 9.7 °C 6.0 °C 1006.3 hPa WSW 9.7 km/h 12.9 km/h 78 % 0.0 mm 253 W/m2
11:55 9.4 °C 5.8 °C 1006.3 hPa West 8.0 km/h 12.9 km/h 78 % 0.0 mm 216 W/m2
12:00 9.5 °C 5.9 °C 1006.7 hPa WSW 6.4 km/h 12.9 km/h 78 % 0.0 mm 253 W/m2
12:05 9.5 °C 6.0 °C 1006.7 hPa SW 8.0 km/h 12.9 km/h 79 % 0.0 mm 262 W/m2
12:10 9.5 °C 5.9 °C 1006.7 hPa West 8.0 km/h 11.3 km/h 78 % 0.0 mm 276 W/m2
12:15 9.6 °C 6.3 °C 1006.7 hPa WSW 6.4 km/h 9.7 km/h 80 % 0.0 mm 329 W/m2
12:20 9.8 °C 6.4 °C 1006.3 hPa WSW 4.8 km/h 11.3 km/h 79 % 0.0 mm 534 W/m2
12:25 10.4 °C 7.0 °C 1006.3 hPa SW 1.6 km/h 11.3 km/h 79 % 0.0 mm 446 W/m2
12:30 10.2 °C 5.9 °C 1006.3 hPa SSW 4.8 km/h 11.3 km/h 75 % 0.0 mm 315 W/m2
12:35 10.1 °C 6.2 °C 1006.7 hPa South 6.4 km/h 9.7 km/h 77 % 0.0 mm 316 W/m2
12:40 9.9 °C 6.2 °C 1006.7 hPa SSW 4.8 km/h 11.3 km/h 78 % 0.0 mm 297 W/m2
12:45 9.9 °C 6.2 °C 1006.3 hPa SW 6.4 km/h 11.3 km/h 78 % 0.0 mm 285 W/m2
12:50 9.7 °C 6.1 °C 1006.3 hPa WSW 4.8 km/h 8.0 km/h 78 % 0.0 mm 267 W/m2
12:55 9.8 °C 6.1 °C 1006.3 hPa SW 4.8 km/h 8.0 km/h 78 % 0.0 mm 253 W/m2
13:00 9.8 °C 5.6 °C 1006.3 hPa South 1.6 km/h 9.7 km/h 75 % 0.0 mm 258 W/m2
13:05 9.7 °C 5.3 °C 1006.3 hPa South 3.2 km/h 9.7 km/h 74 % 0.0 mm 244 W/m2
13:10 9.7 °C 5.5 °C 1006.3 hPa South 3.2 km/h 6.4 km/h 75 % 0.0 mm 244 W/m2
13:15 9.7 °C 5.3 °C 1006.3 hPa SSW 3.2 km/h 9.7 km/h 74 % 0.0 mm 258 W/m2
13:20 9.7 °C 5.3 °C 1006.3 hPa Calm   9.7 km/h 74 % 0.0 mm 250 W/m2
13:25 9.8 °C 5.6 °C 1006.3 hPa SSW 1.6 km/h 6.4 km/h 75 % 0.0 mm 239 W/m2
13:30 9.8 °C 5.6 °C 1006.3 hPa South 4.8 km/h 11.3 km/h 75 % 0.0 mm 216 W/m2
13:35 9.9 °C 5.9 °C 1006.3 hPa South 4.8 km/h 11.3 km/h 76 % 0.0 mm 229 W/m2
13:40 9.9 °C 5.5 °C 1006.3 hPa WSW 1.6 km/h 8.0 km/h 74 % 0.0 mm 250 W/m2
13:45 10.0 °C 5.8 °C 1006.3 hPa Calm   8.0 km/h 75 % 0.0 mm 227 W/m2
13:50 10.1 °C 5.8 °C 1006.3 hPa SW 9.7 km/h 9.7 km/h 75 % 0.0 mm 220 W/m2
13:55 10.0 °C 5.4 °C 1006.3 hPa South 9.7 km/h 11.3 km/h 73 % 0.0 mm 207 W/m2
14:00 9.9 °C 5.3 °C 1006.3 hPa South 8.0 km/h 11.3 km/h 73 % 0.0 mm 202 W/m2
14:05 10.0 °C 6.0 °C 1006.3 hPa Calm   11.3 km/h 76 % 0.0 mm 193 W/m2
14:10 10.0 °C 6.0 °C 1006.3 hPa South 1.6 km/h 11.3 km/h 76 % 0.0 mm 199 W/m2
14:20 10.0 °C 5.4 °C 1006.3 hPa SSW 6.4 km/h 12.9 km/h 73 % 0.0 mm 248 W/m2
14:25 10.0 °C 5.6 °C 1006.3 hPa SSE 6.4 km/h 14.5 km/h 74 % 0.0 mm 204 W/m2
14:30 9.9 °C 5.5 °C 1006.0 hPa SSW 8.0 km/h 14.5 km/h 74 % 0.0 mm 197 W/m2
14:40 10.2 °C 5.8 °C 1006.0 hPa South 8.0 km/h 12.9 km/h 74 % 0.0 mm 301 W/m2
14:45 10.3 °C 6.6 °C 1006.0 hPa South 12.9 km/h 19.3 km/h 78 % 0.0 mm 148 W/m2
14:50 9.6 °C 6.5 °C 1006.0 hPa South 9.7 km/h 22.5 km/h 81 % 0.0 mm 176 W/m2
15:00 9.2 °C 6.4 °C 1006.0 hPa SE 11.3 km/h 24.1 km/h 83 % 0.0 mm 220 W/m2
15:05 9.3 °C 6.5 °C 1005.6 hPa South 11.3 km/h 19.3 km/h 83 % 0.0 mm 207 W/m2
15:15 9.2 °C 6.3 °C 1005.6 hPa SSE 9.7 km/h 17.7 km/h 82 % 0.0 mm 204 W/m2
15:25 9.1 °C 6.0 °C 1006.0 hPa SSE 11.3 km/h 17.7 km/h 81 % 0.0 mm 225 W/m2
15:35 9.6 °C 6.3 °C 1005.6 hPa SSW 12.9 km/h 16.1 km/h 80 % 0.0 mm 309 W/m2
15:40 9.9 °C 6.4 °C 1005.6 hPa South 9.7 km/h 16.1 km/h 79 % 0.0 mm 701 W/m2
15:45 10.4 °C 6.7 °C 1005.6 hPa SE 9.7 km/h 14.5 km/h 78 % 0.0 mm 615 W/m2
15:50 10.6 °C 6.6 °C 1005.6 hPa SE 11.3 km/h 14.5 km/h 76 % 0.0 mm 459 W/m2
15:55 10.4 °C 6.6 °C 1005.6 hPa South 4.8 km/h 17.7 km/h 77 % 0.0 mm 236 W/m2
16:00 10.0 °C 6.3 °C 1005.6 hPa SSE 11.3 km/h 17.7 km/h 78 % 0.0 mm 278 W/m2
16:05 10.0 °C 6.5 °C 1005.6 hPa South 8.0 km/h 17.7 km/h 79 % 0.0 mm 227 W/m2
16:10 9.8 °C 6.4 °C 1005.3 hPa South 8.0 km/h 17.7 km/h 79 % 0.0 mm 221 W/m2
16:15 9.7 °C 6.0 °C 1005.3 hPa South 6.4 km/h 17.7 km/h 78 % 0.0 mm 221 W/m2
16:20 9.7 °C 6.4 °C 1005.6 hPa SSE 6.4 km/h 17.7 km/h 80 % 0.0 mm 223 W/m2
16:25 9.7 °C 6.4 °C 1005.6 hPa SSE 6.4 km/h 16.1 km/h 80 % 0.0 mm 232 W/m2
16:30 9.7 °C 6.6 °C 1005.3 hPa SE 11.3 km/h 16.1 km/h 81 % 0.0 mm 181 W/m2
16:40 9.6 °C 6.5 °C 1005.3 hPa SSE 4.8 km/h 14.5 km/h 81 % 0.0 mm 153 W/m2
16:45 9.3 °C 6.2 °C 1005.3 hPa South 9.7 km/h 14.5 km/h 81 % 0.0 mm 155 W/m2
16:50 9.3 °C 6.4 °C 1005.3 hPa South 1.6 km/h 16.1 km/h 82 % 0.0 mm 141 W/m2
16:55 9.2 °C 6.3 °C 1005.3 hPa SE 4.8 km/h 16.1 km/h 82 % 0.0 mm 132 W/m2
17:00 9.1 °C 6.1 °C 1005.6 hPa SSE 8.0 km/h 19.3 km/h 82 % 0.0 mm 125 W/m2
17:05 8.9 °C 6.2 °C 1005.6 hPa SSE 6.4 km/h 19.3 km/h 83 % 0.0 mm 123 W/m2
17:10 8.8 °C 6.1 °C 1005.6 hPa SSE 6.4 km/h 16.1 km/h 83 % 0.0 mm 130 W/m2
17:15 8.7 °C 6.0 °C 1005.6 hPa SE 9.7 km/h 16.1 km/h 83 % 0.0 mm 125 W/m2
17:20 8.7 °C 5.9 °C 1005.6 hPa SSE 4.8 km/h 16.1 km/h 83 % 0.0 mm 98 W/m2
17:25 8.6 °C 5.9 °C 1005.6 hPa SE 6.4 km/h 14.5 km/h 83 % 0.0 mm 67 W/m2
17:30 8.6 °C 6.0 °C 1005.6 hPa SSE 6.4 km/h 14.5 km/h 84 % 0.0 mm 49 W/m2
17:35 8.6 °C 6.0 °C 1005.6 hPa SE 4.8 km/h 14.5 km/h 84 % 0.0 mm 30 W/m2
17:40 8.4 °C 5.9 °C 1005.6 hPa SSW 8.0 km/h 16.1 km/h 84 % 0.0 mm 16 W/m2
17:45 8.1 °C 5.3 °C 1006.0 hPa South 16.1 km/h 27.4 km/h 83 % 0.0 mm 14 W/m2
17:55 7.3 °C 5.3 °C 1006.0 hPa South 14.5 km/h 20.9 km/h 87 % 0.0 mm 7 W/m2
18:00 7.0 °C 5.1 °C 1006.3 hPa South 11.3 km/h 22.5 km/h 88 % 0.3 mm 5 W/m2
18:05 6.8 °C 5.1 °C 1006.3 hPa SSE 4.8 km/h 22.5 km/h 89 % 0.5 mm 5 W/m2
18:10 6.7 °C 5.2 °C 1006.3 hPa South 11.3 km/h 17.7 km/h 90 % 0.5 mm 5 W/m2
18:15 6.7 °C 5.3 °C 1006.7 hPa South 6.4 km/h 17.7 km/h 91 % 1.0 mm 0 W/m2
18:20 6.4 °C 5.1 °C 1006.3 hPa SSE 4.8 km/h 17.7 km/h 91 % 1.5 mm 5 W/m2
18:25 6.3 °C 4.9 °C 1006.3 hPa SE 4.8 km/h 12.9 km/h 91 % 2.3 mm 11 W/m2
18:30 6.2 °C 5.0 °C 1006.3 hPa SSE 3.2 km/h 12.9 km/h 92 % 2.3 mm 18 W/m2
18:35 6.1 °C 5.1 °C 1006.3 hPa SE 3.2 km/h 11.3 km/h 93 % 2.3 mm 32 W/m2
18:40 6.2 °C 5.1 °C 1006.3 hPa ESE 1.6 km/h 11.3 km/h 93 % 2.5 mm 32 W/m2
18:45 6.1 °C 5.0 °C 1006.3 hPa SE 4.8 km/h 11.3 km/h 93 % 2.5 mm 19 W/m2
18:55 5.8 °C 4.7 °C 1006.3 hPa East 3.2 km/h 11.3 km/h 93 % 2.3 mm 18 W/m2
19:00 5.7 °C 4.6 °C 1006.3 hPa East 4.8 km/h 11.3 km/h 93 % 2.3 mm 16 W/m2
19:05 5.7 °C 4.8 °C 1006.3 hPa ESE 8.0 km/h 11.3 km/h 94 % 2.3 mm 11 W/m2
19:10 5.6 °C 4.5 °C 1006.3 hPa ESE 4.8 km/h 11.3 km/h 93 % 2.0 mm 7 W/m2
19:15 5.4 °C 4.6 °C 1006.3 hPa East 1.6 km/h 12.9 km/h 94 % 1.5 mm 5 W/m2
19:20 5.4 °C 4.5 °C 1006.3 hPa ENE 4.8 km/h 12.9 km/h 94 % 1.0 mm 0 W/m2
19:25 5.3 °C 4.4 °C 1006.3 hPa East 3.2 km/h 9.7 km/h 94 % 0.5 mm 0 W/m2
19:30 5.2 °C 4.3 °C 1006.3 hPa ENE 3.2 km/h 8.0 km/h 94 % 0.3 mm 0 W/m2
19:35 5.1 °C 4.2 °C 1006.3 hPa Calm   8.0 km/h 94 % 0.3 mm 0 W/m2
19:40 4.9 °C 4.1 °C 1006.3 hPa East 1.6 km/h 8.0 km/h 94 % 0.0 mm 0 W/m2
19:45 4.8 °C 3.9 °C 1006.3 hPa East 1.6 km/h 4.8 km/h 94 % 0.0 mm 0 W/m2
19:50 4.7 °C 3.8 °C 1006.7 hPa East 1.6 km/h 4.8 km/h 94 % 0.0 mm 0 W/m2
19:55 4.5 °C 3.6 °C 1006.7 hPa East 1.6 km/h 4.8 km/h 94 % 0.0 mm 0 W/m2
20:00 4.4 °C 3.7 °C 1006.7 hPa East 1.6 km/h 8.0 km/h 95 % 0.0 mm 0 W/m2
20:05 4.4 °C 3.6 °C 1007.0 hPa East 1.6 km/h 8.0 km/h 94 % 0.0 mm 0 W/m2
20:10 4.5 °C 3.8 °C 1007.0 hPa ESE 3.2 km/h 4.8 km/h 95 % 0.0 mm 0 W/m2
20:15 4.5 °C 3.8 °C 1007.0 hPa SE 4.8 km/h 6.4 km/h 95 % 0.0 mm 0 W/m2
20:20 4.6 °C 3.9 °C 1007.0 hPa ESE 4.8 km/h 6.4 km/h 95 % 0.0 mm 0 W/m2
20:25 4.8 °C 4.0 °C 1007.0 hPa Calm   6.4 km/h 95 % 0.0 mm 0 W/m2
20:30 4.8 °C 4.1 °C 1007.0 hPa Calm   8.0 km/h 95 % 0.0 mm 0 W/m2
20:35 4.8 °C 4.0 °C 1007.0 hPa ESE 4.8 km/h 12.9 km/h 95 % 0.0 mm 0 W/m2
20:40 4.7 °C 4.0 °C 1006.7 hPa East 1.6 km/h 12.9 km/h 95 % 0.0 mm 0 W/m2
20:45 4.6 °C 3.9 °C 1006.7 hPa East 1.6 km/h 8.0 km/h 95 % 0.0 mm 0 W/m2
20:50 4.6 °C 3.9 °C 1006.3 hPa ENE 3.2 km/h 6.4 km/h 95 % 0.0 mm 0 W/m2
20:55 4.6 °C 3.8 °C 1006.3 hPa East 4.8 km/h 11.3 km/h 95 % 0.0 mm 0 W/m2
21:00 4.5 °C 3.8 °C 1006.3 hPa ESE 3.2 km/h 11.3 km/h 95 % 0.0 mm 0 W/m2
21:10 4.3 °C 3.6 °C 1006.7 hPa SE 1.6 km/h 6.4 km/h 95 % 0.0 mm 0 W/m2
21:15 4.3 °C 3.5 °C 1007.0 hPa Calm   6.4 km/h 95 % 0.0 mm 0 W/m2
21:20 4.3 °C 3.5 °C 1007.0 hPa SE 1.6 km/h 6.4 km/h 95 % 0.0 mm 0 W/m2
21:25 4.2 °C 3.5 °C 1007.0 hPa SE 4.8 km/h 6.4 km/h 95 % 0.0 mm 0 W/m2
21:30 4.1 °C 3.4 °C 1007.0 hPa Calm   6.4 km/h 95 % 0.0 mm 0 W/m2
21:35 4.1 °C 3.3 °C 1007.0 hPa SE 1.6 km/h 6.4 km/h 95 % 0.0 mm 0 W/m2
21:40 3.9 °C 3.2 °C 1007.0 hPa SE 1.6 km/h 4.8 km/h 95 % 0.0 mm 0 W/m2
21:45 3.8 °C 3.3 °C 1007.0 hPa Calm   4.8 km/h 96 % 0.0 mm 0 W/m2
21:50 3.8 °C 3.3 °C 1007.0 hPa SE 3.2 km/h 4.8 km/h 96 % 0.0 mm 0 W/m2
21:55 3.8 °C 3.2 °C 1007.0 hPa SE 1.6 km/h 4.8 km/h 96 % 0.0 mm 0 W/m2
22:00 3.4 °C 2.9 °C 1007.0 hPa Calm   4.8 km/h 96 % 0.0 mm 0 W/m2
22:05 3.2 °C 2.6 °C 1007.0 hPa Calm   1.6 km/h 96 % 0.0 mm 0 W/m2
22:10 3.3 °C 2.8 °C 1007.0 hPa Calm   1.6 km/h 96 % 0.0 mm 0 W/m2
22:15 3.1 °C 2.5 °C 1006.7 hPa Calm   1.6 km/h 96 % 0.0 mm 0 W/m2
22:20 3.1 °C 2.5 °C 1006.7 hPa Calm   3.2 km/h 96 % 0.0 mm 0 W/m2
22:25 3.0 °C 2.4 °C 1006.7 hPa SE 1.6 km/h 4.8 km/h 96 % 0.0 mm 0 W/m2
22:30 2.9 °C 2.3 °C 1006.7 hPa Calm   4.8 km/h 96 % 0.0 mm 0 W/m2
22:35 3.1 °C 2.7 °C 1006.7 hPa SE 1.6 km/h 6.4 km/h 97 % 0.0 mm 0 W/m2
22:40 3.3 °C 2.8 °C 1007.0 hPa SE 3.2 km/h 6.4 km/h 97 % 0.0 mm 0 W/m2
22:45 3.3 °C 2.9 °C 1007.0 hPa SE 1.6 km/h 6.4 km/h 97 % 0.0 mm 0 W/m2
22:50 3.2 °C 2.8 °C 1007.0 hPa Calm   6.4 km/h 97 % 0.0 mm 0 W/m2
22:55 3.3 °C 2.8 °C 1007.0 hPa SE 1.6 km/h 8.0 km/h 97 % 0.0 mm 0 W/m2
23:00 3.6 °C 3.2 °C 1007.0 hPa SE 3.2 km/h 8.0 km/h 97 % 0.0 mm 0 W/m2
23:05 3.6 °C 3.2 °C 1006.7 hPa ESE 1.6 km/h 6.4 km/h 97 % 0.0 mm 0 W/m2
23:10 3.7 °C 3.2 °C 1006.7 hPa ESE 3.2 km/h 6.4 km/h 97 % 0.0 mm 0 W/m2
23:15 3.8 °C 3.4 °C 1007.0 hPa East 3.2 km/h 8.0 km/h 97 % 0.0 mm 0 W/m2
23:20 3.9 °C 3.5 °C 1007.0 hPa ESE 1.6 km/h 8.0 km/h 97 % 0.0 mm 0 W/m2
23:25 4.1 °C 3.6 °C 1007.0 hPa SE 6.4 km/h 8.0 km/h 97 % 0.0 mm 0 W/m2
23:30 4.1 °C 3.6 °C 1007.0 hPa Calm   8.0 km/h 97 % 0.0 mm 0 W/m2
23:35 4.2 °C 3.7 °C 1007.0 hPa Calm   8.0 km/h 97 % 0.0 mm 0 W/m2
23:40 4.3 °C 3.8 °C 1007.0 hPa ESE 4.8 km/h 6.4 km/h 97 % 0.0 mm 0 W/m2
23:45 4.3 °C 3.8 °C 1006.7 hPa ESE 4.8 km/h 9.7 km/h 97 % 0.0 mm 0 W/m2
23:50 4.3 °C 3.9 °C 1006.7 hPa ESE 4.8 km/h 9.7 km/h 97 % 0.0 mm 0 W/m2
23:55 4.4 °C 4.0 °C 1007.0 hPa Calm   9.7 km/h 97 % 0.0 mm 0 W/m2
Avec l'autorisation de Weather Underground - 1.5 mb